createdAt,value
2023-03-20T05:00:29.439Z,368634.38
2023-03-20T05:01:31.457Z,368634.38
2023-03-20T05:02:30.405Z,368634.38
2023-03-20T05:03:30.395Z,368634.38
2023-03-20T05:04:30.411Z,368634.38
2023-03-20T05:05:30.366Z,368634.38
2023-03-20T05:06:30.352Z,368634.38
2023-03-20T05:07:30.358Z,368634.38
2023-03-20T05:08:30.340Z,368634.38
2023-03-20T05:09:30.325Z,368634.38
2023-03-20T05:10:30.318Z,368634.38
2023-03-20T05:11:30.307Z,368634.38
2023-03-20T05:12:30.312Z,368634.38
2023-03-20T05:13:30.284Z,368634.38
2023-03-20T05:14:30.268Z,368634.38
2023-03-20T05:15:30.257Z,368634.38
2023-03-20T05:16:30.350Z,368634.38
2023-03-20T05:17:30.238Z,368634.38
2023-03-20T05:18:30.255Z,368634.38
2023-03-20T05:19:30.220Z,368634.38
2023-03-20T05:20:30.221Z,368634.38
2023-03-20T05:21:30.195Z,368634.38
2023-03-20T05:22:30.187Z,368634.38
2023-03-20T05:23:30.206Z,368634.38
2023-03-20T05:24:30.164Z,368634.38
2023-03-20T05:25:30.190Z,368634.38
2023-03-20T05:26:30.173Z,368634.38
2023-03-20T05:27:30.175Z,368634.38
2023-03-20T05:28:30.137Z,368634.38
2023-03-20T05:29:32.293Z,368634.38
2023-03-20T05:30:30.127Z,368634.38
2023-03-20T05:31:30.076Z,368634.38
2023-03-20T05:32:30.091Z,368634.38
2023-03-20T05:33:30.096Z,368634.38
2023-03-20T05:34:30.072Z,368634.38
2023-03-20T05:35:30.047Z,368634.38
2023-03-20T05:36:30.080Z,368634.38
2023-03-20T05:37:30.045Z,368634.38
2023-03-20T05:38:30.038Z,368634.38
2023-03-20T05:39:30.318Z,368634.38
2023-03-20T05:40:30.023Z,368634.38
2023-03-20T05:41:29.989Z,368634.38
2023-03-20T05:42:29.993Z,368634.38
2023-03-20T05:43:29.975Z,368634.38
2023-03-20T06:43:37.102Z,11.25
2023-03-20T06:44:38.060Z,11.25
2023-03-20T06:45:38.078Z,11.25
2023-03-20T06:46:38.073Z,11.25
2023-03-20T06:49:58.128Z,5.62
2023-03-20T06:50:59.086Z,5.62
2023-03-20T06:51:59.062Z,5.62
2023-03-20T06:52:59.061Z,5.62
2023-03-20T06:53:59.039Z,5.62
2023-03-20T06:54:59.032Z,5.62
2023-03-20T06:55:59.023Z,5.62
2023-03-20T06:56:59.022Z,5.62
2023-03-20T06:57:59.024Z,11.25
2023-03-20T06:58:59.053Z,11.25
2023-03-20T06:59:58.966Z,11.25
2023-03-20T07:00:58.976Z,11.25
2023-03-20T07:01:59.072Z,11.25
2023-03-20T07:03:01.071Z,11.25
2023-03-20T07:03:58.926Z,11.25
2023-03-20T07:04:59.074Z,11.25
2023-03-20T07:05:58.922Z,11.25
2023-03-20T07:06:58.904Z,11.25
2023-03-20T07:07:58.890Z,11.25
2023-03-20T07:08:58.888Z,11.25
2023-03-20T07:09:58.864Z,16.88
2023-03-20T07:10:58.915Z,16.88
2023-03-20T07:11:58.871Z,11.25
2023-03-20T07:12:58.873Z,11.25
2023-03-20T07:13:59.000Z,16.88
2023-03-20T07:14:58.825Z,16.88
2023-03-20T07:16:04.499Z,16.88
2023-03-20T07:16:58.853Z,16.88
2023-03-20T07:17:58.871Z,16.88
2023-03-20T07:18:58.846Z,16.88
2023-03-20T07:19:58.757Z,22.50
2023-03-20T07:20:58.759Z,22.50
2023-03-20T07:21:58.742Z,28.12
2023-03-20T07:22:58.979Z,28.12
2023-03-20T07:23:58.714Z,22.50
2023-03-20T07:24:58.706Z,28.12
2023-03-20T07:25:58.696Z,28.12
2023-03-20T07:26:58.735Z,28.12
2023-03-20T07:27:58.799Z,22.50
2023-03-20T07:28:58.733Z,22.50
2023-03-20T07:29:58.654Z,16.88
2023-03-20T07:30:59.026Z,16.88
2023-03-20T07:32:02.309Z,22.50
2023-03-20T07:32:58.649Z,16.88
2023-03-20T07:33:58.616Z,16.88
2023-03-20T07:34:58.648Z,16.88
2023-03-20T07:35:58.645Z,16.88
2023-03-20T07:36:58.591Z,16.88
2023-03-20T07:37:58.579Z,16.88
2023-03-20T07:38:58.553Z,16.88
2023-03-20T07:39:58.591Z,16.88
2023-03-20T07:40:58.657Z,16.88
2023-03-20T07:41:58.567Z,16.88
2023-03-20T07:42:58.578Z,16.88
2023-03-20T07:43:58.577Z,16.88
2023-03-20T07:44:58.642Z,22.50
2023-03-20T07:45:58.555Z,22.50
2023-03-20T07:46:58.572Z,22.50
2023-03-20T07:47:58.558Z,22.50
2023-03-20T07:48:58.533Z,16.88
2023-03-20T07:49:58.514Z,16.88
2023-03-20T07:50:58.462Z,16.88
2023-03-20T07:51:58.445Z,22.50
2023-03-20T07:52:58.435Z,22.50
2023-03-20T07:53:58.446Z,22.50
2023-03-20T07:54:58.386Z,22.50
2023-03-20T07:55:58.382Z,28.12
2023-03-20T07:56:58.418Z,28.12
2023-03-20T07:57:58.355Z,33.75
2023-03-20T07:58:58.382Z,50.62
2023-03-20T07:59:58.366Z,67.50
2023-03-20T08:00:58.497Z,78.75
2023-03-20T08:01:58.397Z,84.38
2023-03-20T08:02:58.470Z,73.12
2023-03-20T08:03:59.360Z,73.12
2023-03-20T08:04:58.306Z,78.75
2023-03-20T08:05:58.363Z,78.75
2023-03-20T08:06:58.314Z,78.75
2023-03-20T08:07:58.244Z,61.88
2023-03-20T08:08:58.275Z,50.62
2023-03-20T08:09:58.241Z,50.62
2023-03-20T08:10:58.221Z,45.00
2023-03-20T08:11:58.270Z,39.38
2023-03-20T08:12:58.183Z,39.38
2023-03-20T08:13:58.282Z,39.38
2023-03-20T08:14:58.208Z,33.75
2023-03-20T08:15:58.156Z,33.75
2023-03-20T08:17:12.964Z,39.38
2023-03-20T08:17:58.234Z,45.00
2023-03-20T08:18:58.455Z,45.00
2023-03-20T08:19:58.319Z,45.00
2023-03-20T08:20:58.145Z,45.00
2023-03-20T08:21:58.114Z,45.00
2023-03-20T08:22:58.629Z,50.62
2023-03-20T08:23:58.075Z,45.00
2023-03-20T08:24:58.246Z,33.75
2023-03-20T08:25:59.004Z,33.75
2023-03-20T08:26:58.170Z,28.12
2023-03-20T08:27:58.161Z,28.12
2023-03-20T08:28:58.097Z,28.12
2023-03-20T08:29:57.984Z,28.12
2023-03-20T08:30:58.127Z,28.12
2023-03-20T08:31:58.062Z,22.50
2023-03-20T08:32:58.466Z,22.50
2023-03-20T08:33:58.653Z,22.50
2023-03-20T08:34:58.065Z,22.50
2023-03-20T08:35:58.031Z,28.12
2023-03-20T08:36:57.964Z,33.75
2023-03-20T08:37:57.902Z,39.38
2023-03-20T08:38:57.960Z,45.00
2023-03-20T08:39:57.873Z,56.25
2023-03-20T08:40:57.905Z,67.50
2023-03-20T08:41:59.654Z,73.12
2023-03-20T08:42:57.845Z,90.00
2023-03-20T08:43:57.976Z,112.50
2023-03-20T08:44:57.884Z,146.25
2023-03-20T08:45:57.963Z,185.62
2023-03-20T08:46:57.890Z,163.12
2023-03-20T08:47:57.866Z,213.75
2023-03-20T08:48:57.889Z,174.38
2023-03-20T08:49:57.779Z,348.75
2023-03-20T08:50:57.755Z,405.00
2023-03-20T08:51:57.747Z,455.62
2023-03-20T08:52:57.754Z,410.62
2023-03-20T08:53:57.769Z,331.88
2023-03-20T08:54:57.754Z,241.88
2023-03-20T08:55:57.723Z,241.88
2023-03-20T08:56:57.749Z,191.25
2023-03-20T08:57:57.688Z,174.38
2023-03-20T08:58:57.686Z,174.38
2023-03-20T08:59:57.694Z,106.88
2023-03-20T09:00:57.653Z,101.25
2023-03-20T09:01:57.917Z,112.50
2023-03-20T09:02:57.662Z,123.75
2023-03-20T09:03:57.620Z,129.38
2023-03-20T09:04:57.635Z,123.75
2023-03-20T09:05:57.582Z,112.50
2023-03-20T09:06:57.612Z,95.62
2023-03-20T09:07:57.605Z,84.38
2023-03-20T09:08:57.599Z,95.62
2023-03-20T09:09:57.572Z,101.25
2023-03-20T09:10:57.584Z,95.62
2023-03-20T09:11:57.519Z,101.25
2023-03-20T09:12:57.528Z,106.88
2023-03-20T09:13:57.500Z,106.88
2023-03-20T09:14:57.553Z,123.75
2023-03-20T09:15:57.603Z,123.75
2023-03-20T09:16:57.479Z,135.00
2023-03-20T09:17:57.452Z,146.25
2023-03-20T09:18:57.461Z,73.12
2023-03-20T09:19:57.444Z,56.25
2023-03-20T09:20:57.465Z,50.62
2023-03-20T09:21:57.407Z,50.62
2023-03-20T09:22:57.478Z,56.25
2023-03-20T09:23:57.392Z,67.50
2023-03-20T09:24:57.954Z,84.38
2023-03-20T09:25:57.400Z,118.12
2023-03-20T09:26:57.353Z,258.75
2023-03-20T09:27:57.344Z,174.38
2023-03-20T09:28:57.351Z,129.38
2023-03-20T09:29:57.330Z,112.50
2023-03-20T09:30:57.376Z,95.62
2023-03-20T09:31:57.370Z,84.38
2023-03-20T09:32:57.385Z,78.75
2023-03-20T09:33:57.288Z,73.12
2023-03-20T09:34:57.751Z,73.12
2023-03-20T09:35:57.311Z,61.88
2023-03-20T09:36:57.256Z,67.50
2023-03-20T09:37:57.242Z,73.12
2023-03-20T09:38:57.226Z,95.62
2023-03-20T09:39:57.244Z,95.62
2023-03-20T09:40:57.223Z,101.25
2023-03-20T09:41:57.916Z,112.50
2023-03-20T09:42:57.169Z,106.88
2023-03-20T09:43:57.195Z,129.38
2023-03-20T09:44:57.154Z,157.50
2023-03-20T09:45:57.162Z,168.75
2023-03-20T09:47:12.540Z,202.50
2023-03-20T09:47:57.137Z,258.75
2023-03-20T09:48:57.141Z,247.50
2023-03-20T09:49:57.109Z,225.00
2023-03-20T09:50:57.093Z,230.62
2023-03-20T09:51:57.101Z,225.00
2023-03-20T09:52:57.083Z,208.12
2023-03-20T09:53:57.815Z,168.75
2023-03-20T09:54:57.041Z,151.88
2023-03-20T09:55:57.096Z,140.62
2023-03-20T09:56:57.024Z,84.38
2023-03-20T09:57:57.021Z,73.12
2023-03-20T09:58:57.028Z,67.50
2023-03-20T09:59:57.004Z,56.25
2023-03-20T10:00:56.975Z,50.62
2023-03-20T10:01:57.017Z,45.00
2023-03-20T10:02:56.985Z,45.00
2023-03-20T10:03:56.937Z,45.00
2023-03-20T10:04:56.949Z,45.00
2023-03-20T10:05:56.906Z,50.62
2023-03-20T10:06:56.939Z,50.62
2023-03-20T10:07:56.910Z,50.62
2023-03-20T10:08:56.895Z,56.25
2023-03-20T10:09:56.876Z,61.88
2023-03-20T10:10:56.933Z,61.88
2023-03-20T10:11:56.870Z,56.25
2023-03-20T10:12:56.852Z,50.62
2023-03-20T10:13:56.853Z,45.00
2023-03-20T10:14:56.842Z,45.00
2023-03-20T10:15:56.915Z,45.00
2023-03-20T10:16:56.815Z,45.00
2023-03-20T10:17:56.830Z,56.25
2023-03-20T10:18:56.777Z,61.88
2023-03-20T10:19:56.772Z,67.50
2023-03-20T10:20:56.748Z,73.12
2023-03-20T10:21:56.790Z,78.75
2023-03-20T10:22:56.733Z,78.75
2023-03-20T10:23:56.705Z,67.50
2023-03-20T10:24:56.722Z,61.88
2023-03-20T10:25:56.735Z,56.25
2023-03-20T10:26:56.691Z,50.62
2023-03-20T10:27:56.676Z,56.25
2023-03-20T10:28:56.682Z,61.88
2023-03-20T10:29:56.728Z,61.88
2023-03-20T10:30:56.680Z,61.88
2023-03-20T10:31:56.678Z,61.88
2023-03-20T10:32:56.622Z,56.25
2023-03-20T10:33:56.615Z,56.25
2023-03-20T10:34:56.598Z,56.25
2023-03-20T10:35:56.636Z,56.25
2023-03-20T10:36:56.564Z,56.25
2023-03-20T10:37:56.603Z,50.62
2023-03-20T10:38:56.574Z,50.62
2023-03-20T10:39:56.546Z,50.62
2023-03-20T10:40:56.589Z,50.62
2023-03-20T10:41:56.569Z,50.62
2023-03-20T10:42:56.513Z,50.62
2023-03-20T10:43:56.501Z,50.62
2023-03-20T10:44:56.502Z,61.88
2023-03-20T10:45:56.486Z,61.88
2023-03-20T10:46:56.561Z,61.88
2023-03-20T10:47:56.580Z,56.25
2023-03-20T10:48:56.438Z,56.25
2023-03-20T10:49:56.580Z,56.25
2023-03-20T10:50:56.442Z,56.25
2023-03-20T10:51:56.425Z,61.88
2023-03-20T10:52:56.426Z,67.50
2023-03-20T10:53:56.383Z,73.12
2023-03-20T10:54:56.369Z,78.75
2023-03-20T10:55:56.362Z,84.38
2023-03-20T10:56:56.393Z,90.00
2023-03-20T10:57:56.382Z,84.38
2023-03-20T10:58:56.352Z,84.38
2023-03-20T10:59:56.332Z,73.12
2023-03-20T11:00:56.356Z,73.12
2023-03-20T11:01:56.305Z,67.50
2023-03-20T11:02:56.315Z,67.50
2023-03-20T11:03:56.339Z,61.88
2023-03-20T11:04:56.255Z,56.25
2023-03-20T11:06:08.912Z,45.00
2023-03-20T11:06:56.251Z,50.62
2023-03-20T11:07:56.276Z,56.25
2023-03-20T11:08:56.255Z,56.25
2023-03-20T11:09:56.233Z,56.25
2023-03-20T11:10:58.319Z,56.25
2023-03-20T11:11:56.199Z,45.00
2023-03-20T11:12:56.195Z,45.00
2023-03-20T11:13:56.198Z,45.00
2023-03-20T11:14:56.174Z,45.00
2023-03-20T11:15:56.177Z,50.62
2023-03-20T11:16:56.268Z,50.62
2023-03-20T11:17:56.168Z,50.62
2023-03-20T11:18:56.114Z,56.25
2023-03-20T11:19:56.143Z,56.25
2023-03-20T11:20:56.106Z,50.62
2023-03-20T11:21:56.104Z,50.62
2023-03-20T11:22:56.086Z,50.62
2023-03-20T11:23:56.083Z,50.62
2023-03-20T11:24:56.041Z,50.62
2023-03-20T11:25:56.068Z,56.25
2023-03-20T11:26:56.027Z,56.25
2023-03-20T11:27:56.040Z,61.88
2023-03-20T11:28:56.305Z,67.50
2023-03-20T11:29:55.989Z,67.50
2023-03-20T11:31:04.637Z,67.50
2023-03-20T11:31:56.158Z,73.12
2023-03-20T11:32:56.037Z,73.12
2023-03-20T11:33:55.989Z,67.50
2023-03-20T11:34:55.934Z,61.88
2023-03-20T11:35:55.984Z,61.88
2023-03-20T11:37:08.910Z,61.88
2023-03-20T11:37:55.907Z,61.88
2023-03-20T11:38:55.879Z,61.88
2023-03-20T11:39:55.904Z,67.50
2023-03-20T11:40:55.870Z,73.12
2023-03-20T11:41:55.864Z,67.50
2023-03-20T11:42:55.881Z,61.88
2023-03-20T11:43:55.852Z,56.25
2023-03-20T11:44:55.818Z,56.25
2023-03-20T11:45:55.839Z,56.25
2023-03-20T11:46:55.803Z,56.25
2023-03-20T11:47:55.797Z,56.25
2023-03-20T11:48:55.770Z,56.25
2023-03-20T11:49:55.824Z,56.25
2023-03-20T11:50:55.754Z,56.25
2023-03-20T11:51:55.737Z,56.25
2023-03-20T11:52:55.732Z,61.88
2023-03-20T11:53:55.755Z,61.88
2023-03-20T11:54:55.708Z,61.88
2023-03-20T11:55:55.727Z,61.88
2023-03-20T11:56:55.701Z,61.88
2023-03-20T11:57:55.664Z,56.25
2023-03-20T11:58:55.654Z,56.25
2023-03-20T11:59:55.668Z,56.25
2023-03-20T12:00:55.647Z,61.88
2023-03-20T12:01:55.625Z,56.25
2023-03-20T12:02:55.681Z,50.62
2023-03-20T12:03:55.784Z,50.62
2023-03-20T12:04:55.614Z,67.50
2023-03-20T12:05:55.583Z,78.75
2023-03-20T12:06:55.593Z,78.75
2023-03-20T12:07:55.561Z,73.12
2023-03-20T12:08:55.548Z,67.50
2023-03-20T12:09:55.542Z,61.88
2023-03-20T12:10:55.548Z,61.88
2023-03-20T12:11:55.525Z,73.12
2023-03-20T12:12:55.515Z,78.75
2023-03-20T12:13:55.515Z,84.38
2023-03-20T12:14:55.475Z,73.12
2023-03-20T12:15:55.520Z,73.12
2023-03-20T12:16:55.470Z,73.12
2023-03-20T12:17:55.462Z,78.75
2023-03-20T12:18:55.445Z,90.00
2023-03-20T12:19:55.455Z,112.50
2023-03-20T12:20:55.438Z,135.00
2023-03-20T12:21:55.422Z,146.25
2023-03-20T12:22:55.422Z,140.62
2023-03-20T12:23:55.392Z,106.88
2023-03-20T12:24:55.381Z,101.25
2023-03-20T12:25:55.375Z,101.25
2023-03-20T12:26:55.340Z,95.62
2023-03-20T12:27:55.360Z,95.62
2023-03-20T12:28:55.352Z,101.25
2023-03-20T12:29:55.349Z,106.88
2023-03-20T12:30:55.343Z,118.12
2023-03-20T12:31:55.300Z,129.38
2023-03-20T12:32:55.335Z,135.00
2023-03-20T12:33:55.285Z,118.12
2023-03-20T12:34:55.297Z,106.88
2023-03-20T12:35:55.295Z,95.62
2023-03-20T12:36:55.238Z,84.38
2023-03-20T12:37:55.260Z,78.75
2023-03-20T12:38:55.213Z,73.12
2023-03-20T12:39:55.219Z,67.50
2023-03-20T12:40:55.227Z,67.50
2023-03-20T12:41:55.193Z,67.50
2023-03-20T12:42:55.214Z,67.50
2023-03-20T12:43:55.206Z,73.12
2023-03-20T12:44:55.151Z,73.12
2023-03-20T12:45:55.174Z,73.12
2023-03-20T12:46:55.225Z,78.75
2023-03-20T12:47:55.127Z,78.75
2023-03-20T12:48:55.108Z,78.75
2023-03-20T12:49:55.089Z,78.75
2023-03-20T12:50:55.121Z,73.12
2023-03-20T12:51:55.085Z,73.12
2023-03-20T12:52:55.074Z,73.12
2023-03-20T12:53:55.062Z,73.12
2023-03-20T12:54:55.040Z,73.12
2023-03-20T12:55:55.024Z,84.38
2023-03-20T12:56:55.074Z,84.38
2023-03-20T12:57:55.035Z,78.75
2023-03-20T12:58:55.009Z,73.12
2023-03-20T12:59:54.982Z,73.12
2023-03-20T13:00:54.973Z,78.75
2023-03-20T13:01:54.975Z,73.12
2023-03-20T13:02:55.044Z,73.12
2023-03-20T13:03:54.936Z,67.50
2023-03-20T13:04:54.930Z,67.50
2023-03-20T13:05:54.920Z,61.88
2023-03-20T13:06:54.925Z,61.88
2023-03-20T13:07:54.899Z,56.25
2023-03-20T13:08:54.909Z,56.25
2023-03-20T13:09:54.879Z,56.25
2023-03-20T13:10:54.863Z,56.25
2023-03-20T13:11:54.880Z,56.25
2023-03-20T13:12:54.884Z,56.25
2023-03-20T13:13:54.833Z,61.88
2023-03-20T13:14:54.868Z,61.88
2023-03-20T13:15:57.155Z,61.88
2023-03-20T13:16:54.869Z,61.88
2023-03-20T13:17:54.805Z,61.88
2023-03-20T13:18:54.777Z,61.88
2023-03-20T13:19:54.768Z,56.25
2023-03-20T13:20:54.749Z,56.25
2023-03-20T13:21:54.825Z,56.25
2023-03-20T13:22:54.758Z,61.88
2023-03-20T13:23:54.758Z,61.88
2023-03-20T13:24:54.743Z,61.88
2023-03-20T13:25:54.792Z,61.88
2023-03-20T13:26:54.697Z,61.88
2023-03-20T13:27:54.705Z,61.88
2023-03-20T13:28:54.685Z,67.50
2023-03-20T13:29:54.695Z,67.50
2023-03-20T13:30:54.639Z,73.12
2023-03-20T13:31:54.666Z,78.75
2023-03-20T13:32:54.690Z,95.62
2023-03-20T13:33:54.596Z,118.12
2023-03-20T13:34:54.684Z,140.62
2023-03-20T13:35:54.612Z,151.88
2023-03-20T13:36:54.622Z,140.62
2023-03-20T13:37:54.626Z,191.25
2023-03-20T13:38:54.564Z,146.25
2023-03-20T13:39:54.549Z,151.88
2023-03-20T13:40:54.567Z,174.38
2023-03-20T13:41:54.549Z,236.25
2023-03-20T13:42:54.567Z,213.75
2023-03-20T13:43:54.606Z,191.25
2023-03-20T13:44:54.515Z,151.88
2023-03-20T13:45:54.575Z,129.38
2023-03-20T13:46:54.559Z,106.88
2023-03-20T13:47:54.510Z,106.88
2023-03-20T13:48:54.440Z,101.25
2023-03-20T13:49:54.474Z,84.38
2023-03-20T13:50:54.444Z,73.12
2023-03-20T13:51:54.420Z,73.12
2023-03-20T13:52:54.410Z,67.50
2023-03-20T13:53:54.393Z,61.88
2023-03-20T13:54:54.452Z,56.25
2023-03-20T13:55:54.350Z,50.62
2023-03-20T13:56:54.436Z,50.62
2023-03-20T13:57:54.376Z,45.00
2023-03-20T13:58:54.336Z,39.38
2023-03-20T13:59:54.357Z,39.38
2023-03-20T14:00:54.410Z,33.75
2023-03-20T14:01:54.311Z,39.38
2023-03-20T14:02:54.289Z,33.75
2023-03-20T14:03:54.415Z,39.38
2023-03-20T14:04:54.268Z,39.38
2023-03-20T14:05:54.250Z,39.38
2023-03-20T14:06:54.285Z,33.75
2023-03-20T14:07:54.239Z,28.12
2023-03-20T14:08:54.268Z,28.12
2023-03-20T14:09:54.274Z,28.12
2023-03-20T14:10:54.234Z,28.12
2023-03-20T14:11:54.188Z,28.12
2023-03-20T14:12:54.179Z,28.12
2023-03-20T14:13:54.180Z,22.50
2023-03-20T14:14:54.234Z,22.50
2023-03-20T14:15:54.252Z,22.50
2023-03-20T14:16:54.129Z,22.50
2023-03-20T14:17:54.121Z,22.50
2023-03-20T14:18:54.759Z,22.50
2023-03-20T14:19:54.152Z,22.50
2023-03-20T14:20:54.141Z,22.50
2023-03-20T14:21:54.062Z,16.88
2023-03-20T14:22:54.111Z,16.88
2023-03-20T14:23:54.057Z,11.25
2023-03-20T14:24:54.075Z,11.25
2023-03-20T14:25:54.051Z,11.25
2023-03-20T14:26:54.018Z,5.62
2023-03-20T14:27:54.002Z,5.62
2023-03-20T14:28:54.013Z,5.62
2023-03-20T14:29:53.982Z,5.62
2023-03-20T14:30:54.037Z,5.62
2023-03-20T14:31:53.965Z,5.62
2023-03-20T14:32:54.011Z,5.62
2023-03-20T14:33:54.010Z,11.25
2023-03-20T14:34:53.953Z,11.25
2023-03-20T14:35:53.956Z,11.25
2023-03-20T14:36:53.968Z,11.25
2023-03-20T14:37:53.941Z,11.25
2023-03-20T14:38:55.181Z,11.25
2023-03-20T14:39:54.070Z,11.25
2023-03-20T14:40:53.886Z,11.25
2023-03-20T14:41:53.897Z,16.88
2023-03-20T14:42:53.840Z,16.88
2023-03-20T14:43:53.847Z,22.50
2023-03-20T14:44:53.838Z,22.50
2023-03-20T14:45:53.813Z,16.88
2023-03-20T14:46:53.836Z,16.88
2023-03-20T14:47:53.781Z,16.88
2023-03-20T14:48:53.784Z,16.88
2023-03-20T14:49:53.782Z,16.88
2023-03-20T14:50:53.791Z,22.50
2023-03-20T14:51:53.734Z,16.88
2023-03-20T14:52:53.740Z,16.88
2023-03-20T14:53:53.721Z,16.88
2023-03-20T14:54:53.735Z,16.88
2023-03-20T14:55:53.709Z,11.25
2023-03-20T14:56:53.734Z,11.25
2023-03-20T14:57:56.997Z,11.25
2023-03-20T14:58:54.484Z,11.25
2023-03-20T14:59:53.726Z,11.25
2023-03-20T15:00:53.699Z,11.25
2023-03-20T15:01:53.776Z,11.25
2023-03-20T15:02:53.643Z,11.25
2023-03-20T15:03:53.607Z,11.25
2023-03-20T15:04:53.622Z,11.25
2023-03-20T15:05:53.601Z,11.25
2023-03-20T15:06:53.614Z,16.88
2023-03-20T15:07:53.560Z,16.88
2023-03-20T15:08:53.551Z,16.88
2023-03-20T15:09:53.543Z,22.50
2023-03-20T15:10:53.567Z,22.50
2023-03-20T15:11:53.558Z,22.50
2023-03-20T15:12:53.568Z,22.50
2023-03-20T15:13:53.495Z,28.12
2023-03-20T15:14:53.515Z,33.75
2023-03-20T15:15:53.499Z,33.75
2023-03-20T15:16:53.487Z,39.38
2023-03-20T15:17:53.522Z,39.38
2023-03-20T15:18:53.517Z,39.38
2023-03-20T15:19:53.457Z,39.38
2023-03-20T15:20:53.429Z,39.38
2023-03-20T15:21:53.469Z,33.75
2023-03-20T15:22:55.209Z,33.75
2023-03-20T15:23:53.374Z,33.75
2023-03-20T15:24:53.430Z,33.75
2023-03-20T15:25:53.510Z,33.75
2023-03-20T15:26:53.405Z,28.12
2023-03-20T15:27:53.378Z,28.12
2023-03-20T15:28:53.341Z,28.12
2023-03-20T15:29:53.323Z,28.12
2023-03-20T15:30:53.358Z,28.12
2023-03-20T15:32:10.385Z,28.12
2023-03-20T15:32:53.366Z,28.12
2023-03-20T15:33:53.329Z,28.12
2023-03-20T15:34:53.275Z,22.50
2023-03-20T15:35:53.441Z,22.50
2023-03-20T15:36:53.251Z,16.88
2023-03-20T15:37:53.251Z,16.88
2023-03-20T15:38:53.281Z,16.88
2023-03-20T15:39:53.232Z,16.88
2023-03-20T15:40:53.765Z,16.88
2023-03-20T15:41:53.194Z,16.88
2023-03-20T15:42:53.171Z,16.88
2023-03-20T15:43:53.189Z,16.88
2023-03-20T15:44:53.187Z,11.25
2023-03-20T15:45:57.614Z,11.25
2023-03-20T15:46:53.147Z,11.25
2023-03-20T15:47:53.111Z,11.25
2023-03-20T15:48:53.119Z,11.25
2023-03-20T15:49:53.101Z,11.25
2023-03-20T15:50:53.129Z,11.25
2023-03-20T15:51:53.094Z,11.25
2023-03-20T15:52:53.358Z,11.25
2023-03-20T15:53:53.050Z,11.25
2023-03-20T15:54:53.057Z,11.25
2023-03-20T15:55:53.084Z,16.88
2023-03-20T15:56:53.058Z,16.88
2023-03-20T15:57:53.045Z,16.88
2023-03-20T15:58:53.000Z,16.88
2023-03-20T15:59:53.027Z,16.88
2023-03-20T16:00:52.984Z,16.88
2023-03-20T16:01:53.047Z,16.88
2023-03-20T16:02:52.999Z,22.50
2023-03-20T16:03:53.101Z,22.50
2023-03-20T16:04:52.942Z,16.88
2023-03-20T16:05:52.970Z,16.88
2023-03-20T16:06:52.958Z,16.88
2023-03-20T16:07:52.912Z,16.88
2023-03-20T16:08:52.909Z,16.88
2023-03-20T16:09:52.951Z,16.88
2023-03-20T16:10:52.921Z,16.88
2023-03-20T16:11:52.869Z,16.88
2023-03-20T16:12:52.878Z,16.88
2023-03-20T16:13:52.861Z,16.88
2023-03-20T16:14:52.959Z,16.88
2023-03-20T16:15:52.872Z,11.25
2023-03-20T16:16:52.813Z,11.25
2023-03-20T16:17:52.780Z,5.62
2023-03-20T16:18:52.826Z,5.62
2023-03-20T16:19:52.804Z,5.62
2023-03-20T16:20:52.773Z,5.62
2023-03-20T16:21:52.794Z,5.62
2023-03-20T16:22:52.734Z,5.62
2023-03-20T16:23:52.734Z,5.62
2023-03-20T16:24:52.726Z,5.62
2023-03-20T16:25:52.729Z,5.62
2023-03-20T16:26:52.772Z,5.62
2023-03-20T16:27:52.742Z,5.62
2023-03-20T16:28:52.677Z,5.62
2023-03-20T16:29:52.697Z,5.62
2023-03-20T16:30:52.763Z,5.62
2023-03-20T16:31:52.732Z,5.62
2023-03-20T16:32:52.667Z,5.62
2023-03-20T16:33:52.638Z,5.62
2023-03-20T16:34:52.628Z,5.62
2023-03-20T16:35:52.682Z,5.62
2023-03-20T16:36:52.638Z,5.62
2023-03-20T16:37:52.581Z,5.62
2023-03-20T16:38:52.576Z,5.62
2023-03-20T16:39:52.592Z,5.62
2023-03-20T16:40:52.543Z,5.62
2023-03-20T16:41:52.576Z,5.62
2023-03-20T16:42:52.548Z,5.62
2023-03-20T16:43:52.504Z,5.62
2023-03-20T16:44:52.518Z,5.62
2023-03-20T16:45:52.472Z,5.62
2023-03-20T16:46:52.544Z,5.62
2023-03-20T16:47:52.468Z,5.62
2023-03-20T16:48:52.453Z,5.62
2023-03-20T16:49:52.473Z,5.62
2023-03-20T16:50:52.426Z,5.62
2023-03-20T16:51:52.410Z,5.62
2023-03-20T16:52:52.397Z,5.62
2023-03-20T16:53:52.449Z,5.62
2023-03-20T16:54:52.401Z,5.62
2023-03-20T16:55:52.357Z,0.00
2023-03-20T16:56:52.420Z,0.00
2023-03-20T16:57:52.394Z,0.00
2023-03-20T16:58:54.608Z,0.00
2023-03-20T16:59:52.313Z,0.00
2023-03-20T17:00:52.359Z,0.00
2023-03-20T17:01:52.287Z,0.00
2023-03-20T17:02:52.313Z,0.00
2023-03-20T17:03:52.357Z,0.00
2023-03-20T17:04:52.586Z,0.00
2023-03-20T17:05:52.269Z,0.00
2023-03-20T17:06:52.253Z,0.00
2023-03-20T17:07:52.236Z,0.00
2023-03-20T17:08:52.239Z,0.00
2023-03-20T17:09:52.202Z,0.00
2023-03-20T17:10:52.201Z,0.00
2023-03-20T17:11:52.209Z,0.00
2023-03-20T17:12:52.168Z,0.00
2023-03-20T17:13:52.191Z,0.00
2023-03-20T17:14:52.170Z,0.00
2023-03-20T17:15:52.177Z,0.00
2023-03-20T17:16:52.350Z,0.00
2023-03-20T17:17:52.171Z,0.00
2023-03-20T17:18:52.113Z,0.00
2023-03-20T17:19:52.426Z,0.00
2023-03-20T17:20:52.091Z,0.00
2023-03-20T17:21:52.169Z,0.00
2023-03-20T17:22:52.134Z,0.00
2023-03-20T17:23:52.051Z,0.00
2023-03-20T17:24:52.032Z,0.00
2023-03-20T17:25:52.398Z,0.00
2023-03-20T17:26:52.041Z,0.00
2023-03-20T17:27:52.041Z,0.00
2023-03-20T17:28:52.029Z,0.00
2023-03-20T17:29:52.001Z,0.00
2023-03-20T17:30:51.971Z,0.00
2023-03-20T17:31:52.066Z,0.00
2023-03-20T17:32:51.992Z,0.00
2023-03-20T17:33:52.066Z,0.00
2023-03-20T17:34:51.941Z,0.00
2023-03-20T17:35:51.962Z,0.00
2023-03-20T17:36:51.938Z,0.00
2023-03-20T17:37:52.064Z,0.00
2023-03-20T17:38:51.914Z,0.00
2023-03-20T17:39:51.873Z,0.00
2023-03-20T17:40:51.867Z,0.00
2023-03-20T17:41:51.890Z,0.00
2023-03-20T17:42:51.903Z,0.00
2023-03-20T17:43:51.862Z,0.00
2023-03-20T17:44:51.879Z,0.00
2023-03-20T17:45:51.966Z,0.00
2023-03-20T17:46:58.371Z,0.00
2023-03-20T17:47:52.144Z,0.00
2023-03-20T17:48:51.821Z,0.00
2023-03-20T17:49:51.881Z,0.00
2023-03-20T17:50:51.855Z,0.00
2023-03-20T17:51:51.813Z,0.00
2023-03-20T17:52:51.841Z,0.00
2023-03-20T17:53:51.840Z,0.00
2023-03-20T17:54:51.732Z,0.00
2023-03-20T17:55:51.790Z,0.00
2023-03-20T17:56:51.769Z,0.00
2023-03-20T17:57:51.792Z,0.00
2023-03-20T17:58:51.812Z,0.00
2023-03-20T17:59:51.791Z,0.00
2023-03-20T18:00:51.895Z,0.00
2023-03-20T18:01:51.879Z,0.00
2023-03-20T18:02:51.747Z,0.00
2023-03-20T18:03:51.696Z,0.00
2023-03-20T18:04:51.789Z,0.00
2023-03-20T18:05:51.677Z,0.00
2023-03-20T18:06:51.708Z,0.00
2023-03-20T18:07:51.638Z,0.00
2023-03-20T18:08:51.664Z,0.00
2023-03-20T18:09:51.657Z,0.00
2023-03-20T18:10:51.599Z,0.00
2023-03-20T18:11:51.652Z,0.00
2023-03-20T18:12:51.571Z,0.00
2023-03-20T18:13:51.566Z,0.00
2023-03-20T18:14:51.581Z,0.00
2023-03-20T18:15:51.648Z,0.00
2023-03-20T18:16:52.270Z,0.00
2023-03-20T18:17:51.579Z,0.00
2023-03-20T18:18:51.516Z,0.00
2023-03-20T18:19:51.543Z,0.00
2023-03-20T18:20:51.506Z,0.00
2023-03-20T18:21:51.495Z,0.00
2023-03-20T18:22:51.486Z,0.00
2023-03-20T18:23:51.461Z,0.00
2023-03-20T18:24:51.684Z,0.00
2023-03-20T18:25:51.475Z,0.00
2023-03-20T18:26:51.682Z,0.00
2023-03-20T18:27:51.483Z,0.00
2023-03-20T18:28:55.657Z,0.00
2023-03-20T18:29:51.420Z,0.00
2023-03-20T18:30:51.458Z,0.00
2023-03-20T18:31:51.613Z,0.00
2023-03-20T18:32:51.573Z,0.00
2023-03-20T18:33:51.388Z,0.00
2023-03-20T18:34:51.521Z,0.00
2023-03-20T18:35:51.474Z,0.00
2023-03-20T18:36:51.358Z,0.00
2023-03-20T18:37:51.472Z,0.00
2023-03-20T18:38:51.373Z,0.00
2023-03-20T18:39:51.645Z,0.00
2023-03-20T18:40:51.366Z,0.00
2023-03-20T18:41:51.392Z,0.00
2023-03-20T18:42:51.449Z,0.00
2023-03-20T18:43:51.281Z,0.00
2023-03-20T18:44:51.214Z,0.00
2023-03-20T18:45:51.213Z,0.00
2023-03-20T18:46:51.222Z,0.00
2023-03-20T18:47:51.184Z,0.00
2023-03-20T18:48:51.677Z,0.00
2023-03-20T18:49:51.180Z,0.00
2023-03-20T18:50:51.276Z,0.00